Time;durP1;ratioP1;P1;durP2;ratioP2;P2;SDS_P1;SDS_P2;PMS_P1;PMS_P2;Temp;Humidity;BMP_temperature;BMP_pressure;BME280_temperature;BME280_humidity;BME280_pressure;Samples;Min_cycle;Max_cycle;Signal;HPM_P1;HPM_P2
2022/11/22 00:00:03;;;;;;;1999.90;999.90;;;3.50;99.90;;;;;;5046351;28;20067;-68
2022/11/22 00:02:29;;;;;;;1999.90;999.90;;;3.50;99.90;;;;;;5038786;28;20048;-69
2022/11/22 00:04:54;;;;;;;1999.90;999.90;;;3.50;99.90;;;;;;5039864;28;20537;-68
2022/11/22 00:07:20;;;;;;;1999.90;999.90;;;3.40;99.90;;;;;;5037189;28;20386;-68
2022/11/22 00:09:45;;;;;;;1999.90;999.90;;;3.50;99.90;;;;;;5041917;28;20382;-68
2022/11/22 00:12:11;;;;;;;1999.90;999.90;;;3.50;99.90;;;;;;5041157;28;20118;-69
2022/11/22 00:14:36;;;;;;;1999.90;999.90;;;3.50;99.90;;;;;;5044848;28;20068;-69
2022/11/22 00:17:03;;;;;;;1999.90;999.90;;;3.50;99.90;;;;;;5041261;28;20124;-68
2022/11/22 00:19:28;;;;;;;1999.90;999.90;;;3.50;99.90;;;;;;5053826;28;20044;-68
2022/11/22 00:21:54;;;;;;;1999.90;999.90;;;3.50;99.90;;;;;;5034010;28;20049;-68
2022/11/22 00:24:19;;;;;;;1999.90;999.90;;;3.50;99.90;;;;;;5046880;28;20080;-68
2022/11/22 00:26:45;;;;;;;1999.90;999.90;;;3.50;99.90;;;;;;5043065;28;20056;-68
2022/11/22 00:29:12;;;;;;;1999.90;999.90;;;3.50;99.90;;;;;;5043363;28;20076;-68
2022/11/22 00:31:38;;;;;;;1999.90;999.90;;;3.50;99.90;;;;;;5045701;28;20045;-68
2022/11/22 00:34:04;;;;;;;1999.90;999.90;;;3.50;99.90;;;;;;5042631;28;20554;-69
2022/11/22 00:36:29;;;;;;;1999.90;999.90;;;3.50;99.90;;;;;;5044191;28;20069;-68
2022/11/22 00:38:55;;;;;;;1999.90;999.90;;;3.50;99.90;;;;;;5042768;28;20523;-68
2022/11/22 00:41:20;;;;;;;1999.90;999.90;;;3.50;99.90;;;;;;5024529;28;20453;-68
2022/11/22 00:43:46;;;;;;;1999.90;999.90;;;3.50;99.90;;;;;;5041647;28;20120;-69
2022/11/22 00:46:11;;;;;;;1999.90;999.90;;;3.60;99.90;;;;;;5041215;28;20044;-68
2022/11/22 00:48:37;;;;;;;1999.90;999.90;;;3.60;99.90;;;;;;5045413;28;20032;-68
2022/11/22 00:51:02;;;;;;;1999.90;999.90;;;3.60;99.90;;;;;;5043963;28;20041;-69
2022/11/22 00:53:28;;;;;;;1999.90;999.90;;;3.60;99.90;;;;;;5042329;28;20037;-68
2022/11/22 00:55:54;;;;;;;1999.90;999.90;;;3.50;99.90;;;;;;5046268;28;20120;-69
2022/11/22 00:58:19;;;;;;;1999.90;999.90;;;3.50;99.90;;;;;;5037541;28;20496;-68
2022/11/22 01:00:45;;;;;;;1999.90;999.90;;;3.50;99.90;;;;;;5043553;28;20044;-68
2022/11/22 01:03:12;;;;;;;1999.90;999.90;;;3.50;99.90;;;;;;5028925;28;20063;-68
2022/11/22 01:05:38;;;;;;;1999.90;999.90;;;3.50;99.90;;;;;;5040557;28;20059;-68
2022/11/22 01:08:04;;;;;;;1999.90;999.90;;;3.50;99.90;;;;;;5042219;28;20050;-68
2022/11/22 01:10:29;;;;;;;1999.90;999.90;;;3.40;99.90;;;;;;5044843;28;20049;-68
2022/11/22 01:12:58;;;;;;;1999.90;999.90;;;3.40;99.90;;;;;;5041630;28;20041;-68
2022/11/22 01:15:24;;;;;;;1999.90;999.90;;;3.40;99.90;;;;;;5036313;28;20094;-68
2022/11/22 01:17:50;;;;;;;1999.90;999.90;;;3.40;99.90;;;;;;5044814;28;20037;-68
2022/11/22 01:20:15;;;;;;;1999.90;999.90;;;3.40;99.90;;;;;;5050795;28;20080;-68
2022/11/22 01:22:41;;;;;;;1999.90;999.90;;;3.40;99.90;;;;;;5034973;28;20041;-68
2022/11/22 01:25:07;;;;;;;1999.90;999.90;;;3.40;99.90;;;;;;5037274;28;20083;-68
2022/11/22 01:27:33;;;;;;;1999.90;999.90;;;3.30;99.90;;;;;;5046457;28;20041;-68
2022/11/22 01:29:58;;;;;;;1999.90;999.90;;;3.30;99.90;;;;;;5042865;28;21227;-68
2022/11/22 01:32:24;;;;;;;1999.90;999.90;;;3.30;99.90;;;;;;5043357;28;20040;-68
2022/11/22 01:34:49;;;;;;;1999.90;999.90;;;3.30;99.90;;;;;;5038370;28;20040;-68
2022/11/22 01:37:15;;;;;;;1999.90;999.90;;;3.30;99.90;;;;;;5039741;28;20492;-68
2022/11/22 01:39:40;;;;;;;1999.90;999.90;;;3.30;99.90;;;;;;5042495;28;20475;-68
2022/11/22 01:42:07;;;;;;;1999.90;999.90;;;3.30;99.90;;;;;;5041520;28;20485;-68
2022/11/22 01:44:32;;;;;;;1999.90;999.90;;;3.20;99.90;;;;;;5039596;28;20060;-69
2022/11/22 01:47:18;;;;;;;1999.90;999.90;;;3.20;99.90;;;;;;5045726;28;20040;-68
2022/11/22 01:49:56;;;;;;;1999.90;999.90;;;3.20;99.90;;;;;;5039701;28;20120;-69
2022/11/22 01:52:25;;;;;;;1999.90;999.90;;;3.20;99.90;;;;;;5042866;28;20481;-69
2022/11/22 01:54:56;;;;;;;1999.90;999.90;;;3.20;99.90;;;;;;5035367;28;20040;-69
2022/11/22 01:57:26;;;;;;;1999.90;999.90;;;3.20;99.90;;;;;;5034114;28;20120;-69
2022/11/22 02:00:02;;;;;;;1999.90;999.90;;;3.10;99.90;;;;;;5025052;28;20115;-69
2022/11/22 02:02:28;;;;;;;1999.90;999.90;;;3.20;99.90;;;;;;5037270;28;20136;-69
2022/11/22 02:04:56;;;;;;;1999.90;999.90;;;3.10;99.90;;;;;;5045371;28;20051;-69
2022/11/22 02:07:27;;;;;;;1999.90;999.90;;;3.20;99.90;;;;;;5038265;28;20045;-69
2022/11/22 02:09:53;;;;;;;1999.90;999.90;;;3.10;99.90;;;;;;5035996;28;20041;-69
2022/11/22 02:12:22;;;;;;;1999.90;999.90;;;3.10;99.90;;;;;;5022829;28;20079;-69
2022/11/22 02:14:48;;;;;;;1999.90;999.90;;;3.10;99.90;;;;;;5038000;28;20063;-69
2022/11/22 02:17:14;;;;;;;1999.90;999.90;;;3.10;99.90;;;;;;5034894;28;20049;-69
2022/11/22 02:19:45;;;;;;;1999.90;999.90;;;3.10;99.90;;;;;;5039981;28;20042;-69
2022/11/22 02:22:14;;;;;;;1999.90;999.90;;;3.20;99.90;;;;;;5035681;28;20885;-69
2022/11/22 02:24:51;;;;;;;1999.90;999.90;;;3.20;99.90;;;;;;5043723;28;20048;-69
2022/11/22 02:27:17;;;;;;;1999.90;999.90;;;3.20;99.90;;;;;;5035967;28;20037;-69
2022/11/22 02:29:43;;;;;;;1999.90;999.90;;;3.20;99.90;;;;;;5038107;28;20391;-70
2022/11/22 02:32:09;;;;;;;1999.90;999.90;;;3.20;99.90;;;;;;5039870;28;20574;-69
2022/11/22 02:34:45;;;;;;;1999.90;999.90;;;3.20;99.90;;;;;;5038758;28;20033;-69
2022/11/22 02:37:14;;;;;;;1999.90;999.90;;;3.20;99.90;;;;;;5040717;28;20095;-69
2022/11/22 02:39:42;;;;;;;1999.90;999.90;;;3.20;99.90;;;;;;5041479;28;20049;-69
2022/11/22 02:42:08;;;;;;;1999.90;999.90;;;3.30;99.90;;;;;;5037588;28;20102;-69
2022/11/22 02:44:34;;;;;;;1999.90;999.90;;;3.30;99.90;;;;;;5043704;28;20432;-69
2022/11/22 02:46:59;;;;;;;1999.90;999.90;;;3.30;99.90;;;;;;5024505;28;20045;-69
2022/11/22 02:49:25;;;;;;;1999.90;999.90;;;3.30;99.90;;;;;;5041834;28;20409;-69
2022/11/22 02:51:51;;;;;;;1999.90;999.90;;;3.30;99.90;;;;;;5039080;28;20053;-69
2022/11/22 02:54:18;;;;;;;1999.90;999.90;;;3.30;99.90;;;;;;5021730;28;20037;-69
2022/11/22 02:56:43;;;;;;;1999.90;999.90;;;3.30;99.90;;;;;;5044174;28;20040;-69
2022/11/22 02:59:09;;;;;;;1999.90;999.90;;;3.40;99.90;;;;;;5039829;28;20512;-69
2022/11/22 03:01:35;;;;;;;1999.90;999.90;;;3.40;99.90;;;;;;5034194;28;20128;-69
2022/11/22 03:04:00;;;;;;;1999.90;999.90;;;3.40;99.90;;;;;;5043178;28;20493;-69
2022/11/22 03:06:26;;;;;;;1999.90;999.90;;;3.40;99.90;;;;;;5043074;28;20460;-70
2022/11/22 03:08:51;;;;;;;1999.90;999.90;;;3.50;99.90;;;;;;5035352;28;20045;-69
2022/11/22 03:11:17;;;;;;;1999.90;999.90;;;3.50;99.90;;;;;;5021877;28;20065;-70
2022/11/22 03:13:43;;;;;;;1999.90;999.90;;;3.50;99.90;;;;;;5039090;28;20041;-70
2022/11/22 03:16:08;;;;;;;1999.90;999.90;;;3.50;99.90;;;;;;5032884;28;20037;-69
2022/11/22 03:18:35;;;;;;;1999.90;999.90;;;3.50;99.90;;;;;;5035882;28;20045;-70
2022/11/22 03:21:05;;;;;;;1999.90;999.90;;;3.60;99.90;;;;;;5033423;28;20044;-69
2022/11/22 03:23:31;;;;;;;1999.90;999.90;;;3.60;99.90;;;;;;5040216;28;20725;-70
2022/11/22 03:25:57;;;;;;;1999.90;999.90;;;3.60;99.90;;;;;;5035585;28;20079;-69
2022/11/22 03:28:22;;;;;;;1999.90;999.90;;;3.70;99.90;;;;;;5034969;28;20091;-70
2022/11/22 03:30:48;;;;;;;1999.90;999.90;;;3.70;99.90;;;;;;5041617;28;20056;-70
2022/11/22 03:33:14;;;;;;;1999.90;999.90;;;3.70;99.90;;;;;;5023417;28;20041;-70
2022/11/22 03:35:39;;;;;;;1999.90;999.90;;;3.70;99.90;;;;;;5036649;28;20128;-69
2022/11/22 03:38:05;;;;;;;1999.90;999.90;;;3.70;99.90;;;;;;5046830;28;20041;-69
2022/11/22 03:40:32;;;;;;;1999.90;999.90;;;3.80;99.90;;;;;;5046584;28;20068;-70
2022/11/22 03:43:01;;;;;;;1999.90;999.90;;;3.80;99.90;;;;;;5036858;28;20384;-70
2022/11/22 03:45:27;;;;;;;1999.90;999.90;;;3.80;99.90;;;;;;5046890;28;20041;-69
2022/11/22 03:47:55;;;;;;;1999.90;999.90;;;3.80;99.90;;;;;;5053176;28;20127;-70
2022/11/22 03:50:20;;;;;;;1999.90;999.90;;;3.90;99.90;;;;;;5042827;28;20044;-69
2022/11/22 03:52:46;;;;;;;1999.90;999.90;;;3.90;99.90;;;;;;5044914;28;20037;-69
2022/11/22 03:55:11;;;;;;;1999.90;999.90;;;3.90;99.90;;;;;;5041857;28;20045;-70
2022/11/22 03:57:37;;;;;;;1999.90;999.90;;;3.90;99.90;;;;;;5048618;28;20037;-70
2022/11/22 04:00:04;;;;;;;1999.90;999.90;;;3.90;99.90;;;;;;5045785;28;20068;-70
2022/11/22 04:02:29;;;;;;;1999.90;999.90;;;3.90;99.90;;;;;;5043813;28;20052;-70
2022/11/22 04:04:55;;;;;;;1999.90;999.90;;;3.90;99.90;;;;;;5043878;28;20079;-69
2022/11/22 04:07:21;;;;;;;1999.90;999.90;;;3.90;99.90;;;;;;5041946;28;20071;-70
2022/11/22 04:09:47;;;;;;;1999.90;999.90;;;3.90;99.90;;;;;;5045102;28;20509;-69
2022/11/22 04:12:12;;;;;;;1999.90;999.90;;;3.90;99.90;;;;;;5046357;28;20052;-70
2022/11/22 04:17:40;;;;;;;1999.90;999.90;;;3.90;99.90;;;;;;5047009;28;20404;-70
2022/11/22 04:22:58;;;;;;;1999.90;999.90;;;4.00;99.90;;;;;;5044829;28;20083;-70
2022/11/22 04:25:25;;;;;;;1999.90;999.90;;;4.00;99.90;;;;;;5046803;28;20451;-70
2022/11/22 04:27:51;;;;;;;1999.90;999.90;;;4.00;99.90;;;;;;5036155;28;20074;-70
2022/11/22 04:30:17;;;;;;;1999.90;999.90;;;4.00;99.90;;;;;;5042618;28;20045;-70
2022/11/22 04:32:45;;;;;;;1999.90;999.90;;;4.00;99.90;;;;;;5040979;28;20041;-69
2022/11/22 04:35:15;;;;;;;1999.90;999.90;;;4.00;99.90;;;;;;5034264;28;20029;-69
2022/11/22 04:37:42;;;;;;;1999.90;999.90;;;4.10;99.90;;;;;;5041037;28;20045;-70
2022/11/22 04:40:08;;;;;;;1999.90;999.90;;;4.10;99.90;;;;;;5043733;28;20471;-70
2022/11/22 04:45:29;;;;;;;1999.90;999.90;;;4.10;99.90;;;;;;4975211;28;20061;-70
2022/11/22 04:48:00;;;;;;;1999.90;999.90;;;4.20;99.90;;;;;;5039051;28;20037;-69
2022/11/22 04:53:13;;;;;;;1999.90;999.90;;;4.20;99.90;;;;;;5042767;28;20048;-67
2022/11/22 04:55:39;;;;;;;1999.90;999.90;;;4.20;99.90;;;;;;5039108;28;20095;-67
2022/11/22 04:58:04;;;;;;;1999.90;999.90;;;4.20;99.90;;;;;;5041653;28;20480;-67
2022/11/22 05:00:30;;;;;;;1999.90;999.90;;;4.30;99.90;;;;;;5042496;28;20045;-70
2022/11/22 05:02:57;;;;;;;1999.90;999.90;;;4.20;99.90;;;;;;5027759;28;20045;-70
2022/11/22 05:05:24;;;;;;;1999.90;999.90;;;4.20;99.90;;;;;;5043802;28;20067;-70
2022/11/22 05:07:50;;;;;;;1999.90;999.90;;;4.20;99.90;;;;;;5042381;28;20044;-70
2022/11/22 05:10:15;;;;;;;1999.90;999.90;;;4.30;99.90;;;;;;5044592;28;20444;-67
2022/11/22 05:12:41;;;;;;;1999.90;999.90;;;4.30;99.90;;;;;;5042503;28;20032;-68
2022/11/22 05:15:08;;;;;;;1999.90;999.90;;;4.30;99.90;;;;;;5044553;28;20025;-68
2022/11/22 05:17:34;;;;;;;1999.90;999.90;;;4.30;99.90;;;;;;5044860;28;20041;-67
2022/11/22 05:20:00;;;;;;;1999.90;999.90;;;4.30;99.90;;;;;;5043199;28;20397;-67
2022/11/22 05:25:13;;;;;;;1999.90;999.90;;;4.40;99.90;;;;;;5037116;28;20088;-68
2022/11/22 05:27:38;;;;;;;1999.90;999.90;;;4.40;99.90;;;;;;5036796;28;20507;-68
2022/11/22 05:30:05;;;;;;;1999.90;999.90;;;4.40;99.90;;;;;;5043454;28;20049;-68
2022/11/22 05:32:31;;;;;;;1999.90;999.90;;;4.50;99.90;;;;;;5041724;28;20041;-68
2022/11/22 05:34:57;;;;;;;1999.90;999.90;;;4.50;99.90;;;;;;5040529;28;20041;-67
2022/11/22 05:37:23;;;;;;;1999.90;999.90;;;4.50;99.90;;;;;;5038607;28;20037;-68
2022/11/22 05:39:48;;;;;;;1999.90;999.90;;;4.50;99.90;;;;;;5042279;28;20404;-68
2022/11/22 05:42:14;;;;;;;1999.90;999.90;;;4.50;99.90;;;;;;5042686;28;20049;-68
2022/11/22 05:44:39;;;;;;;1999.90;999.90;;;4.60;99.90;;;;;;5043370;28;20404;-68
2022/11/22 05:47:05;;;;;;;1999.90;999.90;;;4.60;99.90;;;;;;5045260;28;20511;-68
2022/11/22 05:49:31;;;;;;;1999.90;999.90;;;4.60;99.90;;;;;;5041564;28;20032;-68
2022/11/22 05:51:57;;;;;;;1999.90;999.90;;;4.70;99.90;;;;;;5026609;28;20071;-68
2022/11/22 05:54:23;;;;;;;1999.90;999.90;;;4.70;99.90;;;;;;5037288;28;20045;-68
2022/11/22 05:56:48;;;;;;;1999.90;999.90;;;4.70;99.90;;;;;;5038908;28;20040;-68
2022/11/22 05:59:14;;;;;;;1999.90;999.90;;;4.70;99.90;;;;;;5041453;28;20594;-68
2022/11/22 06:01:39;;;;;;;1999.90;999.90;;;4.70;99.90;;;;;;5037525;28;20091;-69
2022/11/22 06:04:05;;;;;;;1999.90;999.90;;;4.70;99.90;;;;;;5041547;28;20126;-69
2022/11/22 06:06:31;;;;;;;1999.90;999.90;;;4.80;99.90;;;;;;5055987;28;20482;-68
2022/11/22 06:08:58;;;;;;;1999.90;999.90;;;4.80;99.90;;;;;;5026180;28;20052;-68
2022/11/22 06:11:26;;;;;;;1999.90;999.90;;;4.80;99.90;;;;;;5025373;28;20047;-68
2022/11/22 06:13:54;;;;;;;1999.90;999.90;;;4.90;99.90;;;;;;5039666;28;20037;-68
2022/11/22 06:16:20;;;;;;;1999.90;999.90;;;4.90;99.90;;;;;;5051248;28;20420;-68
2022/11/22 06:18:46;;;;;;;1999.90;999.90;;;4.90;99.90;;;;;;5037414;28;21399;-68
2022/11/22 06:21:15;;;;;;;1999.90;999.90;;;4.90;99.90;;;;;;5038124;28;20471;-68
2022/11/22 06:23:41;;;;;;;1999.90;999.90;;;4.90;99.90;;;;;;5037945;28;20040;-68
2022/11/22 06:26:09;;;;;;;1999.90;999.90;;;4.90;99.90;;;;;;5039037;28;20460;-68
2022/11/22 06:28:36;;;;;;;1999.90;999.90;;;5.00;99.90;;;;;;5039141;28;20566;-68
2022/11/22 06:31:04;;;;;;;1999.90;999.90;;;5.00;99.90;;;;;;5028431;28;20128;-68
2022/11/22 06:33:30;;;;;;;1999.90;999.90;;;5.00;99.90;;;;;;5025170;28;20139;-68
2022/11/22 06:36:10;;;;;;;1999.90;999.90;;;5.00;99.90;;;;;;5045204;28;20037;-68
2022/11/22 06:38:36;;;;;;;1999.90;999.90;;;5.10;99.90;;;;;;5022884;28;20564;-68
2022/11/22 06:41:04;;;;;;;1999.90;999.90;;;5.10;99.90;;;;;;5040150;28;20052;-68
2022/11/22 06:43:31;;;;;;;1999.90;999.90;;;5.10;99.90;;;;;;5040527;28;20040;-68
2022/11/22 06:45:58;;;;;;;1999.90;999.90;;;5.10;99.90;;;;;;5039263;28;20044;-68
2022/11/22 06:48:25;;;;;;;1999.90;999.90;;;5.10;99.90;;;;;;5038503;28;20038;-68
2022/11/22 06:50:50;;;;;;;1999.90;999.90;;;5.20;99.90;;;;;;5037283;28;20083;-68
2022/11/22 06:53:16;;;;;;;1999.90;999.90;;;5.20;99.90;;;;;;5039822;28;21605;-68
2022/11/22 06:55:41;;;;;;;1999.90;999.90;;;5.20;99.90;;;;;;5033643;28;20040;-68
2022/11/22 06:58:07;;;;;;;1999.90;999.90;;;5.20;99.90;;;;;;5037041;28;20484;-68
2022/11/22 07:00:32;;;;;;;1999.90;999.90;;;5.20;99.90;;;;;;5039366;28;20617;-68
2022/11/22 07:02:58;;;;;;;1999.90;999.90;;;5.30;99.90;;;;;;5040551;28;20043;-68
2022/11/22 07:05:23;;;;;;;1999.90;999.90;;;5.30;99.90;;;;;;5041463;28;20488;-68
2022/11/22 07:07:49;;;;;;;1999.90;999.90;;;5.30;99.90;;;;;;5027399;28;20045;-68
2022/11/22 07:10:14;;;;;;;1999.90;999.90;;;5.30;99.90;;;;;;5040981;28;20044;-68
2022/11/22 07:12:40;;;;;;;1999.90;999.90;;;5.30;99.90;;;;;;5020710;28;20049;-68
2022/11/22 07:15:06;;;;;;;1999.90;999.90;;;5.40;99.90;;;;;;5040130;28;20048;-68
2022/11/22 07:17:32;;;;;;;1999.90;999.90;;;5.40;99.90;;;;;;5040190;28;20409;-68
2022/11/22 07:19:57;;;;;;;1999.90;999.90;;;5.50;99.90;;;;;;5037520;28;20037;-68
2022/11/22 07:22:23;;;;;;;1999.90;999.90;;;5.60;99.90;;;;;;5033958;28;20052;-68
2022/11/22 07:24:48;;;;;;;1999.90;999.90;;;5.60;99.90;;;;;;5037475;28;20060;-68
2022/11/22 07:27:14;;;;;;;1999.90;999.90;;;5.70;99.90;;;;;;5042237;28;20512;-68
2022/11/22 07:29:40;;;;;;;1999.90;999.90;;;5.70;99.90;;;;;;5038464;28;20037;-68
2022/11/22 07:32:05;;;;;;;1999.90;999.90;;;5.70;99.90;;;;;;5040618;28;20067;-69
2022/11/22 07:34:31;;;;;;;1999.90;999.90;;;5.70;99.90;;;;;;5030236;28;20044;-69
2022/11/22 07:36:56;;;;;;;1999.90;999.90;;;5.70;99.90;;;;;;5032714;28;20292;-68
2022/11/22 07:39:22;;;;;;;1999.90;999.90;;;5.70;99.90;;;;;;5030115;28;20037;-68
2022/11/22 07:41:47;;;;;;;1999.90;999.90;;;5.80;99.90;;;;;;5033196;28;20174;-68
2022/11/22 07:44:13;;;;;;;1999.90;999.90;;;5.80;99.90;;;;;;5032081;28;20080;-68
2022/11/22 07:46:39;;;;;;;1999.90;999.90;;;5.80;99.90;;;;;;5036866;28;20044;-68
2022/11/22 07:49:04;;;;;;;1999.90;999.90;;;5.80;99.90;;;;;;5036191;28;20038;-68
2022/11/22 07:51:30;;;;;;;1999.90;999.90;;;5.80;99.90;;;;;;5036409;28;20037;-68
2022/11/22 07:53:56;;;;;;;1999.90;999.90;;;5.80;99.90;;;;;;5022175;28;20044;-68
2022/11/22 07:56:22;;;;;;;1999.90;999.90;;;5.80;99.90;;;;;;5051594;28;20507;-68
2022/11/22 07:58:47;;;;;;;1999.90;999.90;;;5.80;99.90;;;;;;5038088;28;20037;-69
2022/11/22 08:01:16;;;;;;;1999.90;999.90;;;5.80;99.90;;;;;;5035992;28;20504;-68
2022/11/22 08:03:42;;;;;;;1999.90;999.90;;;5.80;99.90;;;;;;5026064;28;20108;-68
2022/11/22 08:06:10;;;;;;;1999.90;999.90;;;5.80;99.90;;;;;;5036961;28;20048;-68
2022/11/22 08:08:36;;;;;;;1999.90;999.90;;;5.80;99.90;;;;;;5037377;28;20086;-68
2022/11/22 08:11:03;;;;;;;1999.90;999.90;;;5.80;99.90;;;;;;5038312;28;20159;-68
2022/11/22 08:13:29;;;;;;;1999.90;999.90;;;5.80;99.90;;;;;;5028423;28;20512;-68
2022/11/22 08:16:00;;;;;;;1999.90;999.90;;;5.80;99.90;;;;;;5037240;28;20090;-68
2022/11/22 08:18:25;;;;;;;1999.90;999.90;;;5.80;99.90;;;;;;5015242;28;20041;-68
2022/11/22 08:20:51;;;;;;;1999.90;999.90;;;5.80;99.90;;;;;;5044611;28;20045;-68
2022/11/22 08:23:16;;;;;;;1999.90;999.90;;;5.80;99.90;;;;;;5040510;28;20500;-68
2022/11/22 08:25:42;;;;;;;1999.90;999.90;;;5.80;99.90;;;;;;5044648;28;20591;-68
2022/11/22 08:28:07;;;;;;;1999.90;999.90;;;5.70;99.90;;;;;;5036322;28;20057;-69
2022/11/22 08:30:33;;;;;;;1999.90;999.90;;;5.80;99.90;;;;;;5044178;28;20073;-68
2022/11/22 08:32:58;;;;;;;1999.90;999.90;;;5.80;99.90;;;;;;5039148;28;20048;-68
2022/11/22 08:35:24;;;;;;;1999.90;999.90;;;5.80;99.90;;;;;;5040056;28;20033;-68
2022/11/22 08:37:54;;;;;;;1999.90;999.90;;;6.00;99.90;;;;;;5049466;28;20472;-68
2022/11/22 08:40:20;;;;;;;1999.90;999.90;;;6.00;99.90;;;;;;5044234;28;20060;-68
2022/11/22 08:42:45;;;;;;;1999.90;999.90;;;6.00;99.90;;;;;;5032539;28;20033;-68
2022/11/22 08:45:11;;;;;;;1999.90;999.90;;;6.00;99.90;;;;;;5039856;28;20041;-68
2022/11/22 08:47:37;;;;;;;1999.90;999.90;;;6.00;99.90;;;;;;5032513;28;20041;-68
2022/11/22 08:50:02;;;;;;;1999.90;999.90;;;6.00;99.90;;;;;;5042114;28;20148;-68
2022/11/22 08:52:28;;;;;;;1999.90;999.90;;;5.90;99.90;;;;;;5019923;28;20178;-68
2022/11/22 08:54:53;;;;;;;1999.90;999.90;;;5.90;99.90;;;;;;5032180;28;20060;-68
2022/11/22 08:57:19;;;;;;;1999.90;999.90;;;5.90;99.90;;;;;;5040629;28;20045;-68
2022/11/22 08:59:44;;;;;;;1999.90;999.90;;;5.90;99.90;;;;;;5043585;28;20557;-68
2022/11/22 09:02:10;;;;;;;1999.90;999.90;;;5.80;99.90;;;;;;5041390;28;20493;-68
2022/11/22 09:04:35;;;;;;;1999.90;999.90;;;5.80;99.90;;;;;;5045192;28;20037;-68
2022/11/22 09:07:01;;;;;;;1999.90;999.90;;;5.80;99.90;;;;;;5024232;28;20048;-68
2022/11/22 09:09:26;;;;;;;1999.90;999.90;;;5.80;99.90;;;;;;5034376;28;20045;-68
2022/11/22 09:11:52;;;;;;;1999.90;999.90;;;5.80;99.90;;;;;;5038760;28;20131;-68
2022/11/22 09:14:18;;;;;;;1999.90;999.90;;;5.80;99.90;;;;;;5036577;28;20156;-68
2022/11/22 09:16:43;;;;;;;1999.90;999.90;;;5.80;99.90;;;;;;5037747;28;20045;-68
2022/11/22 09:19:09;;;;;;;1999.90;999.90;;;5.80;99.90;;;;;;5037143;28;20062;-68
2022/11/22 09:21:35;;;;;;;1999.90;999.90;;;5.80;99.90;;;;;;5050790;28;20042;-68
2022/11/22 09:24:00;;;;;;;1999.90;999.90;;;5.90;99.90;;;;;;5023661;28;20033;-68
2022/11/22 09:26:26;;;;;;;1999.90;999.90;;;5.90;99.90;;;;;;5040644;28;20041;-69
2022/11/22 09:28:52;;;;;;;1999.90;999.90;;;5.90;99.90;;;;;;5042418;28;20150;-69
2022/11/22 09:31:20;;;;;;;1999.90;999.90;;;5.90;99.90;;;;;;5038454;28;20087;-69
2022/11/22 09:33:48;;;;;;;1999.90;999.90;;;5.90;99.90;;;;;;5023877;28;20094;-69
2022/11/22 09:36:20;;;;;;;1999.90;999.90;;;5.90;99.90;;;;;;5042152;28;20049;-69
2022/11/22 09:38:46;;;;;;;1999.90;999.90;;;5.90;99.90;;;;;;5039992;28;20512;-69
2022/11/22 09:41:14;;;;;;;1999.90;999.90;;;5.90;99.90;;;;;;5027592;28;20049;-69
2022/11/22 09:43:47;;;;;;;1999.90;999.90;;;5.90;99.90;;;;;;5039762;28;20060;-69
2022/11/22 09:46:39;;;;;;;1999.90;999.90;;;5.90;99.90;;;;;;5041317;28;20037;-69
2022/11/22 09:49:26;;;;;;;1999.90;999.90;;;5.90;99.90;;;;;;5040132;28;20067;-69
2022/11/22 09:52:20;;;;;;;1999.90;999.90;;;5.90;99.90;;;;;;5045699;28;20037;-68
2022/11/22 09:55:21;;;;;;;1999.90;999.90;;;5.90;99.90;;;;;;5031115;28;20120;-69
2022/11/22 09:58:01;;;;;;;1999.90;999.90;;;5.90;99.90;;;;;;5032809;28;20052;-69
2022/11/22 10:00:28;;;;;;;1999.90;999.90;;;5.90;99.90;;;;;;5042480;28;20060;-69
2022/11/22 10:03:10;;;;;;;1999.90;999.90;;;5.90;99.90;;;;;;5039380;28;20408;-69
2022/11/22 10:05:50;;;;;;;1999.90;999.90;;;5.90;99.90;;;;;;5036681;28;20068;-69
2022/11/22 10:08:39;;;;;;;1999.90;999.90;;;5.90;99.90;;;;;;5034535;28;20061;-69
2022/11/22 10:11:20;;;;;;;1999.90;999.90;;;5.90;99.90;;;;;;5047155;28;20562;-69
2022/11/22 10:13:58;;;;;;;1999.90;999.90;;;6.00;99.90;;;;;;5043638;28;20053;-69
2022/11/22 10:16:40;;;;;;;1999.90;999.90;;;6.00;99.90;;;;;;5023842;28;20039;-69
2022/11/22 10:19:19;;;;;;;1999.90;999.90;;;6.10;99.90;;;;;;5050397;28;20477;-69
2022/11/22 10:21:47;;;;;;;1999.90;999.90;;;6.20;99.90;;;;;;5042095;28;20056;-69
2022/11/22 10:24:15;;;;;;;1999.90;999.90;;;6.20;99.90;;;;;;5033429;28;20509;-69
2022/11/22 10:26:41;;;;;;;1999.90;999.90;;;6.20;99.90;;;;;;5042306;28;20056;-69
2022/11/22 10:29:41;;;;;;;1999.90;999.90;;;6.20;99.90;;;;;;5030271;28;20367;-69
2022/11/22 10:33:02;;;;;;;1999.90;999.90;;;6.20;99.90;;;;;;5034114;28;20033;-69
2022/11/22 10:35:58;;;;;;;1999.90;999.90;;;6.20;99.90;;;;;;5008069;28;20048;-69
2022/11/22 10:38:41;;;;;;;1999.90;999.90;;;6.30;99.90;;;;;;5031212;28;20040;-69
2022/11/22 10:41:11;;;;;;;1999.90;999.90;;;6.30;99.90;;;;;;5059803;28;20542;-69
2022/11/22 10:44:11;;;;;;;1999.90;999.90;;;6.40;99.90;;;;;;5038720;28;20281;-69
2022/11/22 10:46:57;;;;;;;1999.90;999.90;;;6.50;99.90;;;;;;5034305;28;20517;-70
2022/11/22 10:49:56;;;;;;;1999.90;999.90;;;6.60;99.90;;;;;;5039063;28;20056;-69
2022/11/22 10:52:45;;;;;;;1999.90;999.90;;;6.70;99.90;;;;;;5038338;28;20046;-69
2022/11/22 10:55:21;;;;;;;1999.90;999.90;;;6.70;99.90;;;;;;5041186;28;20124;-69
2022/11/22 10:58:01;;;;;;;1999.90;999.90;;;6.70;99.90;;;;;;5030777;28;20041;-69
2022/11/22 11:00:30;;;;;;;1999.90;999.90;;;6.70;99.90;;;;;;5033699;28;20037;-69
2022/11/22 11:03:14;;;;;;;1999.90;999.90;;;6.70;99.90;;;;;;5028757;28;20045;-68
2022/11/22 11:06:12;;;;;;;1999.90;999.90;;;6.70;99.90;;;;;;5033617;28;20487;-68
2022/11/22 11:09:07;;;;;;;1999.90;999.90;;;6.70;99.90;;;;;;5038318;28;20036;-69
2022/11/22 11:11:35;;;;;;;1999.90;999.90;;;6.70;99.90;;;;;;5040434;28;20540;-68
2022/11/22 11:14:23;;;;;;;1999.90;999.90;;;6.70;99.90;;;;;;5040519;28;20491;-69
2022/11/22 11:16:50;;;;;;;1999.90;999.90;;;6.70;99.90;;;;;;5037225;28;20170;-70
2022/11/22 11:19:17;;;;;;;1999.90;999.90;;;6.70;99.90;;;;;;5035380;28;20044;-69
2022/11/22 11:21:43;;;;;;;1999.90;999.90;;;6.70;99.90;;;;;;5046792;28;20080;-68
2022/11/22 11:24:13;;;;;;;1999.90;999.90;;;6.70;99.90;;;;;;5045546;28;20088;-69
2022/11/22 11:26:41;;;;;;;1999.90;999.90;;;6.80;99.90;;;;;;5036253;28;20079;-69
2022/11/22 11:29:18;;;;;;;1999.90;999.90;;;6.90;99.90;;;;;;5038664;28;20038;-69
2022/11/22 11:31:46;;;;;;;1999.90;999.90;;;7.10;99.90;;;;;;5030745;28;20041;-69
2022/11/22 11:34:19;;;;;;;1999.90;999.90;;;7.20;99.90;;;;;;5021839;28;20045;-69
2022/11/22 11:36:45;;;;;;;1999.90;999.90;;;7.30;99.90;;;;;;5039538;28;20511;-69
2022/11/22 11:39:31;;;;;;;1999.90;999.90;;;7.30;99.90;;;;;;5036019;28;20030;-69
2022/11/22 11:41:56;;;;;;;1999.90;999.90;;;7.40;99.90;;;;;;5038564;28;20454;-69
2022/11/22 11:44:35;;;;;;;1999.90;999.90;;;7.50;99.90;;;;;;5039367;28;20039;-68
2022/11/22 11:47:02;;;;;;;1999.90;999.90;;;7.50;99.90;;;;;;5034497;28;20052;-69
2022/11/22 11:49:30;;;;;;;1999.90;999.90;;;7.60;99.90;;;;;;5030133;28;20503;-69
2022/11/22 11:52:07;;;;;;;1999.90;999.90;;;7.60;99.90;;;;;;5012361;28;20059;-69
2022/11/22 11:54:44;;;;;;;1999.90;999.90;;;7.60;99.90;;;;;;5030565;28;20048;-69
2022/11/22 11:57:30;;;;;;;1999.90;999.90;;;7.80;99.90;;;;;;5035386;28;20056;-69
2022/11/22 12:00:00;;;;;;;1999.90;999.90;;;7.80;99.90;;;;;;5036914;28;20094;-69
2022/11/22 12:02:40;;;;;;;1999.90;999.90;;;7.90;99.90;;;;;;5049312;28;20045;-69
2022/11/22 12:05:11;;;;;;;1999.90;999.90;;;8.10;99.90;;;;;;5042921;28;20041;-68
2022/11/22 12:07:43;;;;;;;1999.90;999.90;;;8.00;99.90;;;;;;5036827;28;20111;-68
2022/11/22 12:10:46;;;;;;;1999.90;999.90;;;7.90;99.90;;;;;;5038317;28;20132;-68
2022/11/22 12:13:32;;;;;;;1999.90;999.90;;;7.80;99.90;;;;;;5041397;28;20475;-68
2022/11/22 12:16:19;;;;;;;1999.90;999.90;;;7.80;99.90;;;;;;5042417;28;20087;-68
2022/11/22 12:19:17;;;;;;;1999.90;999.90;;;7.70;99.90;;;;;;5033082;28;20064;-68
2022/11/22 12:22:15;;;;;;;1999.90;999.90;;;7.60;99.90;;;;;;5030672;28;20061;-69
2022/11/22 12:24:49;;;;;;;1999.90;999.90;;;7.60;99.90;;;;;;5051197;28;20505;-68
2022/11/22 12:27:14;;;;;;;1999.90;999.90;;;7.60;99.90;;;;;;5041306;28;20045;-68
2022/11/22 12:29:43;;;;;;;1999.90;999.90;;;7.60;99.90;;;;;;5038852;28;20560;-68
2022/11/22 12:32:20;;;;;;;1999.90;999.90;;;7.60;99.90;;;;;;5043319;28;20384;-68